createdAt,value
2023-04-16T00:01:36.306Z,9.85
2023-04-16T00:04:03.541Z,10.70
2023-04-16T00:06:30.319Z,10.00
2023-04-16T00:08:56.834Z,10.50
2023-04-16T00:11:23.423Z,9.60
2023-04-16T00:13:49.947Z,9.38
2023-04-16T00:16:16.509Z,8.70
2023-04-16T00:18:43.124Z,9.88
2023-04-16T00:21:09.631Z,8.30
2023-04-16T00:23:36.161Z,11.30
2023-04-16T00:26:02.688Z,10.55
2023-04-16T00:28:29.154Z,9.68
2023-04-16T00:30:55.836Z,8.98
2023-04-16T00:33:22.664Z,11.68
2023-04-16T00:35:49.344Z,10.43
2023-04-16T00:38:16.094Z,10.52
2023-04-16T00:40:42.641Z,10.65
2023-04-16T00:43:09.126Z,11.02
2023-04-16T00:45:35.917Z,10.40
2023-04-16T00:48:02.916Z,12.68
2023-04-16T00:50:29.755Z,13.77
2023-04-16T00:52:56.797Z,13.18
2023-04-16T00:55:23.387Z,13.15
2023-04-16T00:57:49.949Z,13.32
2023-04-16T01:00:16.837Z,14.27
2023-04-16T01:02:43.612Z,13.77
2023-04-16T01:05:10.172Z,15.60
2023-04-16T01:07:36.983Z,15.20
2023-04-16T01:10:03.698Z,15.45
2023-04-16T01:12:30.708Z,16.63
2023-04-16T01:14:57.257Z,16.27
2023-04-16T01:17:23.812Z,14.90
2023-04-16T01:19:50.322Z,16.13
2023-04-16T01:22:17.378Z,15.80
2023-04-16T01:24:43.881Z,15.05
2023-04-16T01:27:10.408Z,15.35
2023-04-16T01:29:37.066Z,14.70
2023-04-16T01:32:03.553Z,14.00
2023-04-16T01:34:30.076Z,16.55
2023-04-16T01:36:57.015Z,14.95
2023-04-16T01:39:23.537Z,14.95
2023-04-16T01:41:50.065Z,14.68
2023-04-16T01:44:16.652Z,15.73
2023-04-16T01:46:44.036Z,16.95
2023-04-16T01:49:10.881Z,16.60
2023-04-16T01:51:37.870Z,17.30
2023-04-16T01:54:04.388Z,18.05
2023-04-16T01:56:30.881Z,18.70
2023-04-16T01:58:57.439Z,17.75
2023-04-16T02:01:24.344Z,19.20
2023-04-16T02:03:51.721Z,19.55
2023-04-16T02:06:18.341Z,20.80
2023-04-16T02:08:44.847Z,20.88
2023-04-16T02:11:11.374Z,21.55
2023-04-16T02:13:37.877Z,23.35
2023-04-16T02:16:04.596Z,20.63
2023-04-16T02:18:31.166Z,23.08
2023-04-16T02:20:58.734Z,23.92
2023-04-16T02:23:25.305Z,25.13
2023-04-16T02:25:51.772Z,25.02
2023-04-16T02:28:18.347Z,25.83
2023-04-16T02:30:44.973Z,24.27
2023-04-16T02:33:11.897Z,23.67
2023-04-16T02:35:38.894Z,25.08
2023-04-16T02:38:05.884Z,26.08
2023-04-16T02:40:32.561Z,23.75
2023-04-16T02:42:59.089Z,24.10
2023-04-16T02:45:25.693Z,22.38
2023-04-16T02:47:52.264Z,23.75
2023-04-16T02:50:18.969Z,21.55
2023-04-16T02:52:45.524Z,24.17
2023-04-16T02:55:12.054Z,22.38
2023-04-16T02:57:38.600Z,23.08
2023-04-16T03:00:05.504Z,23.42
2023-04-16T03:02:32.174Z,23.75
2023-04-16T03:04:58.710Z,25.42
2023-04-16T03:07:25.245Z,21.88
2023-04-16T03:09:51.906Z,23.30
2023-04-16T03:12:18.462Z,21.38
2023-04-16T03:14:44.920Z,22.98
2023-04-16T03:17:11.608Z,24.58
2023-04-16T03:19:38.183Z,34.22
2023-04-16T03:22:04.922Z,48.95
2023-04-16T03:24:32.310Z,31.17
2023-04-16T03:26:59.046Z,22.13
2023-04-16T03:29:26.837Z,34.55
2023-04-16T03:31:53.502Z,26.77
2023-04-16T03:34:20.113Z,26.50
2023-04-16T03:36:46.707Z,25.55
2023-04-16T03:39:13.348Z,30.20
2023-04-16T03:41:39.905Z,29.15
2023-04-16T03:44:06.424Z,27.83
2023-04-16T03:46:33.042Z,29.35
2023-04-16T03:48:59.501Z,31.40
2023-04-16T03:51:26.569Z,30.40
2023-04-16T03:53:53.125Z,30.02
2023-04-16T03:56:19.660Z,30.08
2023-04-16T03:58:46.306Z,29.20
2023-04-16T04:01:12.797Z,31.00
2023-04-16T04:03:39.534Z,29.98
2023-04-16T04:06:09.589Z,30.65
2023-04-16T04:08:36.151Z,28.70
2023-04-16T04:11:02.667Z,33.20
2023-04-16T04:13:29.217Z,29.15
2023-04-16T04:15:55.774Z,31.80
2023-04-16T04:18:22.352Z,29.58
2023-04-16T04:20:48.843Z,30.25
2023-04-16T04:23:15.646Z,28.70
2023-04-16T04:25:42.254Z,30.02
2023-04-16T04:28:08.807Z,28.52
2023-04-16T04:30:36.104Z,30.15
2023-04-16T04:33:02.677Z,32.97
2023-04-16T04:35:29.255Z,31.30
2023-04-16T04:37:55.773Z,31.50
2023-04-16T04:40:22.421Z,29.80
2023-04-16T04:42:49.129Z,28.92
2023-04-16T04:45:16.108Z,28.98
2023-04-16T04:47:42.751Z,30.63
2023-04-16T04:50:09.544Z,28.58
2023-04-16T04:52:36.054Z,28.27
2023-04-16T04:55:02.588Z,29.10
2023-04-16T04:57:29.143Z,28.88
2023-04-16T04:59:55.661Z,27.77
2023-04-16T05:02:22.290Z,27.83
2023-04-16T05:04:48.895Z,28.70
2023-04-16T05:07:15.407Z,28.83
2023-04-16T05:09:41.903Z,27.20
2023-04-16T05:12:08.491Z,27.10
2023-04-16T05:14:36.361Z,28.88
2023-04-16T05:17:03.042Z,29.80
2023-04-16T05:19:29.703Z,29.25
2023-04-16T05:21:56.344Z,30.95
2023-04-16T05:24:23.275Z,28.35
2023-04-16T05:26:49.894Z,29.27
2023-04-16T05:29:16.372Z,29.42
2023-04-16T05:31:42.939Z,27.95
2023-04-16T05:34:09.483Z,29.05
2023-04-16T05:36:35.970Z,26.52
2023-04-16T05:39:02.421Z,27.70
2023-04-16T05:41:29.409Z,28.15
2023-04-16T05:43:56.344Z,27.75
2023-04-16T05:46:22.980Z,27.17
2023-04-16T05:48:49.630Z,28.45
2023-04-16T05:51:16.211Z,26.38
2023-04-16T05:53:42.877Z,28.48
2023-04-16T05:56:09.507Z,25.65
2023-04-16T05:58:36.041Z,24.50
2023-04-16T06:01:02.522Z,25.10
2023-04-16T06:03:30.449Z,23.02
2023-04-16T06:05:57.337Z,21.33
2023-04-16T06:08:23.964Z,20.17
2023-04-16T06:10:51.167Z,22.27
2023-04-16T06:13:18.562Z,22.00
2023-04-16T06:15:45.135Z,21.38
2023-04-16T06:18:12.651Z,21.50
2023-04-16T06:20:39.287Z,21.45
2023-04-16T06:23:05.800Z,20.45
2023-04-16T06:25:32.347Z,21.90
2023-04-16T06:27:58.862Z,21.70
2023-04-16T06:30:25.646Z,21.52
2023-04-16T06:32:52.985Z,21.23
2023-04-16T06:35:20.388Z,21.13
2023-04-16T06:37:47.237Z,20.20
2023-04-16T06:40:13.787Z,20.05
2023-04-16T06:42:40.538Z,21.92
2023-04-16T06:45:07.947Z,17.55
2023-04-16T06:47:34.688Z,18.50
2023-04-16T06:50:01.242Z,18.90
2023-04-16T06:52:28.890Z,17.10
2023-04-16T06:54:55.430Z,17.52
2023-04-16T06:57:21.960Z,17.48
2023-04-16T06:59:48.509Z,16.85
2023-04-16T07:02:15.124Z,16.52
2023-04-16T07:04:41.677Z,15.80
2023-04-16T07:07:09.242Z,13.95
2023-04-16T07:09:35.728Z,13.95
2023-04-16T07:12:02.254Z,13.02
2023-04-16T07:14:29.054Z,11.65
2023-04-16T07:16:55.579Z,12.30
2023-04-16T07:19:22.130Z,12.15
2023-04-16T07:21:48.996Z,11.68
2023-04-16T07:24:15.762Z,12.68
2023-04-16T07:26:42.254Z,12.75
2023-04-16T07:29:09.043Z,12.93
2023-04-16T07:31:35.967Z,12.38
2023-04-16T07:34:02.569Z,13.38
2023-04-16T07:36:29.634Z,12.63
2023-04-16T07:38:56.404Z,12.40
2023-04-16T07:41:22.963Z,13.38
2023-04-16T07:43:49.570Z,13.15
2023-04-16T07:46:16.368Z,12.25
2023-04-16T07:48:44.157Z,11.77
2023-04-16T07:51:10.717Z,11.52
2023-04-16T07:53:37.200Z,9.82
2023-04-16T07:56:03.771Z,10.52
2023-04-16T07:58:30.303Z,9.95
2023-04-16T08:00:56.852Z,10.27
2023-04-16T08:03:23.637Z,9.13
2023-04-16T08:05:50.340Z,9.32
2023-04-16T08:08:16.967Z,9.57
2023-04-16T08:10:43.453Z,9.55
2023-04-16T08:13:10.009Z,8.70
2023-04-16T08:15:36.658Z,9.77
2023-04-16T08:18:03.363Z,9.80
2023-04-16T08:20:29.940Z,8.18
2023-04-16T08:22:56.446Z,9.10
2023-04-16T08:25:24.763Z,8.07
2023-04-16T08:27:51.349Z,7.68
2023-04-16T08:30:17.879Z,8.05
2023-04-16T08:32:44.495Z,8.40
2023-04-16T08:35:11.110Z,6.85
2023-04-16T08:37:37.705Z,7.22
2023-04-16T08:40:04.295Z,6.65
2023-04-16T08:42:32.127Z,7.18
2023-04-16T08:45:09.224Z,6.88
2023-04-16T08:47:39.336Z,9.02
2023-04-16T08:50:06.373Z,8.50
2023-04-16T08:52:34.000Z,8.45
2023-04-16T08:55:14.346Z,10.27
2023-04-16T08:57:47.229Z,10.75
2023-04-16T09:00:14.127Z,13.35
2023-04-16T09:02:41.181Z,13.98
2023-04-16T09:05:08.338Z,12.48
2023-04-16T09:07:34.937Z,13.30
2023-04-16T09:10:01.851Z,15.80
2023-04-16T09:12:28.451Z,15.90
2023-04-16T09:14:57.072Z,12.27
2023-04-16T09:17:23.660Z,5.63
2023-04-16T09:19:50.481Z,3.35
2023-04-16T09:22:17.282Z,3.63
2023-04-16T09:24:43.878Z,3.17
2023-04-16T09:27:12.167Z,3.38
2023-04-16T09:32:06.394Z,3.38
2023-04-16T09:34:33.873Z,4.47
2023-04-16T09:37:20.613Z,4.27
2023-04-16T09:40:07.310Z,4.20
2023-04-16T09:42:35.519Z,4.10
2023-04-16T09:47:41.517Z,4.53
2023-04-16T09:50:11.829Z,3.22
2023-04-16T09:52:39.169Z,4.97
2023-04-16T09:55:06.220Z,7.07
2023-04-16T09:57:32.862Z,4.45
2023-04-16T10:00:04.244Z,4.50
2023-04-16T10:02:31.557Z,7.10
2023-04-16T10:04:58.346Z,16.27
2023-04-16T10:07:28.310Z,14.90
2023-04-16T10:09:55.973Z,5.68
2023-04-16T10:12:22.629Z,4.82
2023-04-16T10:14:50.487Z,3.58
2023-04-16T10:17:17.536Z,3.40
2023-04-16T10:19:44.453Z,4.15
2023-04-16T10:22:11.357Z,4.30
2023-04-16T10:24:38.361Z,4.90
2023-04-16T10:27:04.925Z,5.22
2023-04-16T10:29:31.990Z,4.65
2023-04-16T10:31:59.383Z,4.50
2023-04-16T10:34:26.522Z,5.37
2023-04-16T10:36:53.690Z,5.43
2023-04-16T10:39:24.756Z,4.88
2023-04-16T10:42:06.571Z,4.38
2023-04-16T10:44:33.399Z,4.32
2023-04-16T10:46:59.995Z,4.72
2023-04-16T10:49:27.270Z,4.95
2023-04-16T10:51:54.200Z,5.00
2023-04-16T10:54:23.381Z,4.30
2023-04-16T10:56:50.683Z,4.38
2023-04-16T10:59:21.084Z,4.50
2023-04-16T11:01:48.782Z,4.53
2023-04-16T11:04:21.933Z,4.93
2023-04-16T11:07:04.240Z,4.05
2023-04-16T11:09:49.936Z,5.13
2023-04-16T11:12:18.631Z,4.93
2023-04-16T11:14:53.167Z,4.60
2023-04-16T11:17:20.490Z,4.82
2023-04-16T11:19:47.505Z,5.30
2023-04-16T11:22:17.289Z,6.22
2023-04-16T11:24:44.677Z,5.35
2023-04-16T11:27:12.446Z,8.07
2023-04-16T11:29:39.048Z,5.30
2023-04-16T11:32:06.047Z,4.85
2023-04-16T11:34:33.316Z,5.30
2023-04-16T11:37:00.129Z,4.83
2023-04-16T11:39:26.650Z,6.07
2023-04-16T11:41:53.947Z,4.88
2023-04-16T11:44:28.080Z,4.00
2023-04-16T11:46:54.840Z,3.03
2023-04-16T11:49:31.196Z,3.58
2023-04-16T11:51:57.999Z,4.22
2023-04-16T11:54:24.929Z,4.47
2023-04-16T11:56:52.646Z,4.60
